Alex, Louisiana
Current Conditions -  °F | °C
As of 12:53 AM on Thursday 23 Oct 2014 (Local Time) from KAEX Reporting Station
Clear Clear  
Wind Chill: 13°   Ceiling: Unl
Heat Index: 13°   Visibility: 10mi
Dew Point: 10°   Wind: 7mph
Humidity: 80%   Direction: 20°NNE
Pressure: 30.11"   Gusts: NA
Location:  31.2081°N, 92.3683°W
Report Text: KAEX 230553Z 02006KT 10SM CLR 13/10 A3011 RMK AO2 SLP199 T01330100 10178 20133 402610128 58000
Loading
Personal Weather Stations






























Interactive Weather Map
Tropical Storm Tracking
New forecast layout! Learn more

10-Day Weather Forecast

Advertisements
Track Severe Weather on mobile